Time;durP1;ratioP1;P1;durP2;ratioP2;P2;SDS_P1;SDS_P2;PMS_P1;PMS_P2;Temp;Humidity;BMP_temperature;BMP_pressure;BME280_temperature;BME280_humidity;BME280_pressure;Samples;Min_cycle;Max_cycle;Signal;HPM_P1;HPM_P2
2021/11/12 00:13:31;;;;;;;3.42;1.20;;;23.00;51.60;;;;;;4899131;29;20242;-47
2021/11/12 00:16:04;;;;;;;2.50;1.20;;;23.10;51.70;;;;;;4950102;28;20666;-45
2021/11/12 00:18:36;;;;;;;2.15;1.40;;;23.10;51.50;;;;;;4964136;28;20200;-44
2021/11/12 00:21:08;;;;;;;2.22;0.90;;;23.10;51.40;;;;;;4958612;28;20289;-48
2021/11/12 00:23:40;;;;;;;2.33;1.10;;;23.20;51.40;;;;;;4964927;28;20971;-46
2021/11/12 00:26:11;;;;;;;2.53;0.93;;;23.20;51.40;;;;;;4963206;28;20201;-45
2021/11/12 00:28:50;;;;;;;3.90;1.33;;;23.20;51.20;;;;;;4958638;28;20258;-43
2021/11/12 00:31:30;;;;;;;1.65;1.20;;;23.30;51.30;;;;;;4964759;28;20194;-50
2021/11/12 00:34:35;;;;;;;1.63;1.20;;;23.30;51.30;;;;;;4960906;28;20277;-48
2021/11/12 00:37:08;;;;;;;2.03;1.00;;;23.30;51.30;;;;;;4957811;28;20217;-46
2021/11/12 00:39:45;;;;;;;1.90;0.98;;;23.30;51.90;;;;;;4963516;28;20202;-46
2021/11/12 00:42:18;;;;;;;1.60;1.00;;;23.40;51.20;;;;;;4964116;28;20217;-47
2021/11/12 00:44:50;;;;;;;1.20;0.90;;;23.40;51.20;;;;;;4958359;28;20221;-49
2021/11/12 00:47:26;;;;;;;5.22;1.08;;;23.40;51.20;;;;;;4962512;28;20254;-48
2021/11/12 00:50:20;;;;;;;1.83;0.88;;;23.40;51.30;;;;;;4964029;28;20205;-42
2021/11/12 00:55:39;;;;;;;1.30;0.80;;;23.50;51.20;;;;;;4960577;28;20202;-43
2021/11/12 00:58:10;;;;;;;1.95;0.82;;;23.50;51.10;;;;;;4964657;28;20208;-44
2021/11/12 01:00:41;;;;;;;1.05;0.90;;;23.60;51.20;;;;;;4957450;28;20613;-43
2021/11/12 01:03:14;;;;;;;4.82;1.13;;;23.60;51.10;;;;;;4961266;28;20320;-46
2021/11/12 01:05:44;;;;;;;1.75;0.60;;;23.60;50.90;;;;;;4961915;28;20204;-51
2021/11/12 01:08:15;;;;;;;1.60;0.60;;;23.70;50.50;;;;;;4957279;28;20198;-50
2021/11/12 01:10:45;;;;;;;2.53;0.70;;;23.70;49.60;;;;;;4963225;28;20285;-42
2021/11/12 01:13:16;;;;;;;3.30;0.60;;;23.70;49.40;;;;;;4962959;28;20922;-47
2021/11/12 01:15:46;;;;;;;1.17;0.50;;;23.70;49.30;;;;;;4957799;28;20297;-47
2021/11/12 01:18:19;;;;;;;1.67;0.70;;;23.70;49.40;;;;;;4963619;28;20203;-48
2021/11/12 01:20:50;;;;;;;1.40;0.60;;;23.80;49.40;;;;;;4960813;28;20302;-46
2021/11/12 01:23:20;;;;;;;1.92;0.50;;;23.80;49.60;;;;;;4955466;28;20226;-44
2021/11/12 01:25:51;;;;;;;1.73;0.60;;;23.80;49.70;;;;;;4962909;28;20619;-46
2021/11/12 01:28:21;;;;;;;1.45;0.60;;;23.80;49.80;;;;;;4958230;28;20204;-45
2021/11/12 01:30:53;;;;;;;2.88;0.70;;;23.80;49.90;;;;;;4958456;28;20226;-48
2021/11/12 01:33:25;;;;;;;2.30;0.63;;;23.90;50.60;;;;;;4964761;28;20220;-47
2021/11/12 01:36:01;;;;;;;1.92;0.55;;;23.90;50.10;;;;;;4959301;28;20205;-44
2021/11/12 01:38:32;;;;;;;1.67;0.60;;;23.90;50.00;;;;;;4962245;28;20736;-47
2021/11/12 01:41:02;;;;;;;1.38;0.60;;;23.90;50.10;;;;;;4962283;28;20191;-44
2021/11/12 01:43:38;;;;;;;1.60;0.80;;;24.00;50.00;;;;;;4959042;28;20896;-46
2021/11/12 01:46:22;;;;;;;1.38;0.60;;;24.00;50.20;;;;;;4959966;28;20218;-46
2021/11/12 01:51:49;;;;;;;0.57;0.50;;;24.00;50.00;;;;;;4958588;28;20221;-43
2021/11/12 01:57:33;;;;;;;2.60;0.60;;;24.10;50.00;;;;;;4957023;28;20206;-49
2021/11/12 02:00:07;;;;;;;4.85;0.77;;;24.10;49.90;;;;;;4958541;28;20572;-43
2021/11/12 02:02:38;;;;;;;3.65;0.60;;;24.20;50.00;;;;;;4956548;28;20812;-45
2021/11/12 02:05:11;;;;;;;3.50;0.98;;;24.20;49.80;;;;;;4958505;28;20614;-42
2021/11/12 02:07:41;;;;;;;3.88;0.80;;;24.20;49.70;;;;;;4959400;28;20198;-46
2021/11/12 02:10:16;;;;;;;5.85;1.35;;;24.20;49.70;;;;;;4954785;28;20309;-45
2021/11/12 02:12:53;;;;;;;6.97;0.88;;;24.20;49.70;;;;;;4962212;28;20206;-48
2021/11/12 02:15:23;;;;;;;4.00;0.80;;;24.30;49.70;;;;;;4959779;28;20202;-45
2021/11/12 02:18:03;;;;;;;3.58;0.85;;;24.30;49.80;;;;;;4955015;28;20718;-46
2021/11/12 02:20:40;;;;;;;1.67;0.60;;;24.30;49.90;;;;;;4963531;28;20290;-45
2021/11/12 02:23:13;;;;;;;2.58;0.82;;;24.40;50.00;;;;;;4960790;28;20315;-46
2021/11/12 02:25:44;;;;;;;2.72;0.70;;;24.40;50.00;;;;;;4959379;28;20234;-45
2021/11/12 02:28:16;;;;;;;4.10;0.57;;;24.50;50.10;;;;;;4968121;28;20292;-46
2021/11/12 02:30:50;;;;;;;2.42;0.70;;;24.50;50.10;;;;;;4962195;28;20213;-44
2021/11/12 02:33:22;;;;;;;3.95;0.60;;;24.50;50.00;;;;;;4963188;28;20218;-48
2021/11/12 02:36:03;;;;;;;3.88;0.65;;;24.60;50.00;;;;;;4968098;28;20202;-44
2021/11/12 02:38:38;;;;;;;2.00;0.60;;;24.60;50.00;;;;;;4962689;28;20194;-45
2021/11/12 02:41:09;;;;;;;1.48;0.70;;;24.70;50.20;;;;;;4960142;28;20261;-45
2021/11/12 02:43:41;;;;;;;1.67;0.65;;;24.70;50.30;;;;;;4968536;28;20234;-43
2021/11/12 02:46:13;;;;;;;1.27;0.60;;;24.70;50.30;;;;;;4960030;28;20198;-46
2021/11/12 02:48:44;;;;;;;1.63;0.60;;;24.70;50.30;;;;;;4964116;28;20278;-47
2021/11/12 02:51:19;;;;;;;1.95;0.57;;;24.80;50.30;;;;;;4967533;28;20292;-49
2021/11/12 02:53:52;;;;;;;2.30;1.00;;;24.90;50.40;;;;;;4962303;28;20828;-44
2021/11/12 02:56:32;;;;;;;2.70;0.60;;;24.90;50.30;;;;;;4965549;28;20202;-47
2021/11/12 02:59:04;;;;;;;1.67;0.57;;;24.90;50.30;;;;;;4967444;28;20214;-46
2021/11/12 03:01:37;;;;;;;3.15;0.60;;;25.00;50.30;;;;;;4961632;28;20209;-47
2021/11/12 03:04:08;;;;;;;1.85;0.70;;;25.00;50.30;;;;;;4962661;28;20234;-47
2021/11/12 03:06:40;;;;;;;5.03;0.70;;;25.10;50.40;;;;;;4965116;28;20289;-47
2021/11/12 03:09:12;;;;;;;1.20;0.50;;;25.10;50.30;;;;;;4961459;28;20893;-44
2021/11/12 03:11:44;;;;;;;0.80;0.40;;;25.10;50.20;;;;;;4964690;28;20652;-48
2021/11/12 03:14:15;;;;;;;0.73;0.60;;;25.20;50.40;;;;;;4962620;28;20235;-45
2021/11/12 03:16:46;;;;;;;3.08;0.50;;;25.20;50.20;;;;;;4955769;28;20236;-45
2021/11/12 03:19:16;;;;;;;1.30;0.50;;;25.30;50.20;;;;;;4964793;28;20210;-44
2021/11/12 03:21:47;;;;;;;1.20;0.63;;;25.30;50.30;;;;;;4962823;28;20233;-46
2021/11/12 03:24:23;;;;;;;0.73;0.43;;;25.30;50.20;;;;;;4961300;28;20328;-46
2021/11/12 03:27:06;;;;;;;1.75;0.32;;;25.40;50.30;;;;;;4967316;28;20588;-47
2021/11/12 04:00:30;;;;;;;2.63;0.60;;;25.70;50.30;;;;;;4960773;28;20208;-43
2021/11/12 04:03:13;;;;;;;0.60;0.50;;;25.70;51.00;;;;;;4960231;28;20229;-43
2021/11/12 04:17:24;;;;;;;0.55;0.50;;;25.80;49.80;;;;;;4929616;28;20206;-46
2021/11/12 05:43:55;;;;;;;2.38;0.50;;;26.30;49.50;;;;;;4903905;28;20240;-44
2021/11/12 05:46:38;;;;;;;0.30;0.30;;;26.30;49.60;;;;;;4958761;28;20206;-46
2021/11/12 05:52:21;;;;;;;1.95;0.40;;;26.30;49.50;;;;;;4922403;28;20243;-47
2021/11/12 05:55:06;;;;;;;0.28;0.20;;;26.30;49.40;;;;;;4963466;28;20272;-45
2021/11/12 05:57:38;;;;;;;0.57;0.30;;;26.40;49.40;;;;;;4961657;28;20284;-47
2021/11/12 06:00:10;;;;;;;1.38;0.30;;;26.30;49.30;;;;;;4962383;28;20199;-45
2021/11/12 06:02:41;;;;;;;0.98;0.40;;;26.40;49.40;;;;;;4969617;28;20238;-47
2021/11/12 06:05:11;;;;;;;2.00;0.30;;;26.40;49.20;;;;;;4963746;28;20218;-45
2021/11/12 06:07:42;;;;;;;0.80;0.30;;;26.40;49.10;;;;;;4964647;28;20281;-45
2021/11/12 06:10:14;;;;;;;0.28;0.28;;;26.40;49.10;;;;;;4967889;28;20281;-45
2021/11/12 06:12:45;;;;;;;1.02;0.40;;;26.40;49.20;;;;;;4961269;28;20229;-45
2021/11/12 06:15:17;;;;;;;0.52;0.40;;;26.40;49.40;;;;;;4966593;28;20293;-46
2021/11/12 06:17:47;;;;;;;0.35;0.35;;;26.40;49.50;;;;;;4966601;28;20284;-44
2021/11/12 06:20:18;;;;;;;1.63;0.60;;;26.40;49.60;;;;;;4959864;28;20819;-45
2021/11/12 06:22:48;;;;;;;2.22;0.45;;;26.40;49.70;;;;;;4967500;28;20213;-45
2021/11/12 06:25:21;;;;;;;1.20;0.40;;;26.40;49.70;;;;;;4963903;28;20254;-47
2021/11/12 06:27:52;;;;;;;3.70;0.57;;;26.50;49.70;;;;;;4961470;28;20641;-43
2021/11/12 06:30:23;;;;;;;1.27;0.43;;;26.50;49.70;;;;;;4966517;28;20259;-45
2021/11/12 06:32:53;;;;;;;1.25;0.47;;;26.50;50.00;;;;;;4963242;28;20621;-43
2021/11/12 06:35:24;;;;;;;0.63;0.40;;;26.50;50.20;;;;;;4958224;28;20289;-45
2021/11/12 06:37:54;;;;;;;3.05;0.73;;;26.50;50.10;;;;;;4967547;28;20293;-44
2021/11/12 06:40:27;;;;;;;0.90;0.40;;;26.50;50.20;;;;;;4961985;28;20286;-45
2021/11/12 06:43:06;;;;;;;1.27;0.30;;;26.50;50.20;;;;;;4962560;28;20292;-47
2021/11/12 06:51:12;;;;;;;0.52;0.40;;;26.50;50.20;;;;;;4959591;28;20210;-46
2021/11/12 06:53:46;;;;;;;0.30;0.30;;;26.60;50.00;;;;;;4966161;28;20645;-45
2021/11/12 06:56:19;;;;;;;1.30;0.30;;;26.50;49.90;;;;;;4962371;28;20218;-45
2021/11/12 06:58:50;;;;;;;0.95;0.45;;;26.60;50.10;;;;;;4960778;28;20276;-45
2021/11/12 07:01:21;;;;;;;1.35;0.40;;;26.50;50.80;;;;;;4967161;28;20285;-47
2021/11/12 07:03:51;;;;;;;1.15;0.30;;;26.60;50.50;;;;;;4959504;28;20232;-48
2021/11/12 07:06:22;;;;;;;0.47;0.35;;;26.50;50.60;;;;;;4959361;28;20283;-43
2021/11/12 07:08:52;;;;;;;0.40;0.40;;;26.50;50.70;;;;;;4967425;28;20293;-44
2021/11/12 07:11:25;;;;;;;0.77;0.45;;;26.50;50.70;;;;;;4958083;28;20282;-46
2021/11/12 07:13:55;;;;;;;0.63;0.32;;;26.50;50.70;;;;;;4961680;28;20236;-44
2021/11/12 07:16:25;;;;;;;0.45;0.30;;;26.60;50.90;;;;;;4965904;28;20282;-46
2021/11/12 07:18:56;;;;;;;1.10;0.32;;;26.60;50.80;;;;;;4959625;28;20206;-41
2021/11/12 07:21:27;;;;;;;1.27;0.45;;;26.60;50.80;;;;;;4960896;28;20206;-45
2021/11/12 07:23:58;;;;;;;0.32;0.28;;;26.50;50.70;;;;;;4962736;28;20245;-43
2021/11/12 07:26:30;;;;;;;0.50;0.40;;;26.50;50.50;;;;;;4959180;28;20578;-43
2021/11/12 07:29:01;;;;;;;0.30;0.30;;;26.50;50.50;;;;;;4965593;28;20293;-44
2021/11/12 07:31:32;;;;;;;0.95;0.30;;;26.60;50.50;;;;;;4963862;28;20196;-44
2021/11/12 07:34:02;;;;;;;0.90;0.50;;;26.50;50.40;;;;;;4960276;28;20227;-46
2021/11/12 07:36:37;;;;;;;0.30;0.30;;;26.50;50.40;;;;;;4966017;28;20226;-46
2021/11/12 07:39:13;;;;;;;0.55;0.20;;;26.50;50.30;;;;;;4963588;28;20202;-45
2021/11/12 07:42:07;;;;;;;0.80;0.30;;;26.50;50.20;;;;;;4958976;28;20206;-44
2021/11/12 07:47:25;;;;;;;0.50;0.30;;;26.50;50.20;;;;;;4953057;28;20566;-45
2021/11/12 07:49:57;;;;;;;0.55;0.30;;;26.50;50.30;;;;;;4960608;28;20207;-44
2021/11/12 07:52:29;;;;;;;0.30;0.25;;;26.40;50.30;;;;;;4964561;28;20284;-45
2021/11/12 07:55:00;;;;;;;0.30;0.30;;;26.40;50.40;;;;;;4961622;28;20563;-47
2021/11/12 07:57:33;;;;;;;0.32;0.30;;;26.40;50.50;;;;;;4958474;28;20202;-45
2021/11/12 08:00:04;;;;;;;0.52;0.30;;;26.40;50.70;;;;;;4964917;28;20281;-45
2021/11/12 08:02:34;;;;;;;0.30;0.30;;;26.40;50.70;;;;;;4960903;28;20200;-44
2021/11/12 08:05:10;;;;;;;0.30;0.30;;;26.40;50.70;;;;;;4958559;28;20227;-45
2021/11/12 08:07:40;;;;;;;0.30;0.30;;;26.40;50.90;;;;;;4964700;28;20198;-45
2021/11/12 08:10:15;;;;;;;0.63;0.30;;;26.40;50.90;;;;;;4962218;28;20293;-44
2021/11/12 08:12:57;;;;;;;0.30;0.30;;;26.40;50.90;;;;;;4960400;28;20296;-44
2021/11/12 08:15:44;;;;;;;0.93;0.30;;;26.40;50.90;;;;;;4962704;28;20203;-47
2021/11/12 08:18:33;;;;;;;0.30;0.30;;;26.30;50.80;;;;;;4960781;28;20198;-49
2021/11/12 08:21:06;;;;;;;0.30;0.30;;;26.40;50.90;;;;;;4959968;28;20623;-45
2021/11/12 08:23:47;;;;;;;0.40;0.35;;;26.30;50.80;;;;;;4964989;28;20245;-44
2021/11/12 08:26:26;;;;;;;0.40;0.22;;;26.30;50.80;;;;;;4964014;28;20206;-46
2021/11/12 08:32:06;;;;;;;0.45;0.30;;;26.20;50.80;;;;;;4937675;28;20349;-46
2021/11/12 08:34:45;;;;;;;0.70;0.30;;;26.20;50.80;;;;;;4964689;28;20238;-46
2021/11/12 08:37:22;;;;;;;0.60;0.40;;;26.20;50.90;;;;;;4959681;28;20201;-47
2021/11/12 08:40:02;;;;;;;0.57;0.30;;;26.20;50.90;;;;;;4959694;28;20218;-48
2021/11/12 08:42:36;;;;;;;1.10;0.25;;;26.20;50.90;;;;;;4964949;28;20218;-44
2021/11/12 08:45:15;;;;;;;0.63;0.35;;;26.20;50.90;;;;;;4958395;28;20225;-44
2021/11/12 08:47:48;;;;;;;1.30;0.40;;;26.20;51.00;;;;;;4957863;28;20214;-48
2021/11/12 08:50:21;;;;;;;0.45;0.30;;;26.10;51.00;;;;;;4966690;28;20769;-44
2021/11/12 08:52:54;;;;;;;0.25;0.25;;;26.10;51.00;;;;;;4960235;28;20202;-47
2021/11/12 08:55:27;;;;;;;0.77;0.30;;;26.10;51.00;;;;;;4960167;28;20297;-45
2021/11/12 08:57:58;;;;;;;0.20;0.20;;;26.10;51.10;;;;;;4962276;28;20253;-45
2021/11/12 09:00:31;;;;;;;0.68;0.20;;;26.10;51.00;;;;;;4959101;28;20200;-44
2021/11/12 09:03:02;;;;;;;0.95;0.25;;;26.10;51.10;;;;;;4961537;28;20218;-43
2021/11/12 09:05:33;;;;;;;0.77;0.40;;;26.10;51.10;;;;;;4961332;28;20653;-44
2021/11/12 09:08:04;;;;;;;0.40;0.40;;;26.00;51.00;;;;;;4957518;28;20286;-44
2021/11/12 09:10:34;;;;;;;0.45;0.32;;;26.10;51.10;;;;;;4964311;28;20281;-44
2021/11/12 09:13:13;;;;;;;0.30;0.30;;;26.00;51.00;;;;;;4963949;28;20313;-44
2021/11/12 09:15:49;;;;;;;0.50;0.38;;;26.00;51.00;;;;;;4958088;28;20198;-44
2021/11/12 09:18:22;;;;;;;0.40;0.40;;;26.00;51.00;;;;;;4962360;28;20194;-45
2021/11/12 09:20:53;;;;;;;0.47;0.20;;;25.90;50.90;;;;;;4961235;28;20292;-45
2021/11/12 09:23:24;;;;;;;0.30;0.30;;;26.00;51.00;;;;;;4953189;28;20306;-44
2021/11/12 09:25:55;;;;;;;0.30;0.30;;;25.90;51.00;;;;;;4936785;29;20233;-44
2021/11/12 09:28:25;;;;;;;0.63;0.35;;;25.90;51.00;;;;;;4950474;29;20974;-45
2021/11/12 09:30:58;;;;;;;0.25;0.25;;;25.80;51.00;;;;;;4948459;28;20281;-44
2021/11/12 09:33:28;;;;;;;0.60;0.35;;;25.90;51.10;;;;;;4934834;29;20679;-45
2021/11/12 09:36:00;;;;;;;0.45;0.30;;;25.80;51.10;;;;;;4949254;29;20261;-46
2021/11/12 09:38:31;;;;;;;0.40;0.40;;;25.80;51.10;;;;;;4948198;28;20205;-45
2021/11/12 09:41:02;;;;;;;0.32;0.20;;;25.80;51.10;;;;;;4951086;29;20638;-43
2021/11/12 09:43:32;;;;;;;0.35;0.35;;;25.80;51.20;;;;;;4948619;29;20310;-45
2021/11/12 09:46:06;;;;;;;0.30;0.30;;;25.80;51.20;;;;;;4949860;28;20726;-47
2021/11/12 09:48:36;;;;;;;0.85;0.40;;;25.70;51.20;;;;;;4949816;29;20282;-46
2021/11/12 09:51:07;;;;;;;0.52;0.40;;;25.70;51.20;;;;;;4947279;29;20286;-44
2021/11/12 09:53:37;;;;;;;0.30;0.30;;;25.70;51.30;;;;;;4948734;28;20309;-44
2021/11/12 09:56:09;;;;;;;0.65;0.20;;;25.70;51.20;;;;;;4949963;29;20245;-46
2021/11/12 09:58:40;;;;;;;0.30;0.22;;;25.70;51.20;;;;;;4948325;28;20211;-47
2021/11/12 10:01:12;;;;;;;0.98;0.20;;;25.60;51.20;;;;;;4950428;28;20290;-46
2021/11/12 10:03:46;;;;;;;0.43;0.38;;;25.60;51.20;;;;;;4948615;29;20215;-44
2021/11/12 10:06:23;;;;;;;1.00;0.40;;;25.60;51.20;;;;;;4944337;29;20229;-43
2021/11/12 10:08:55;;;;;;;0.30;0.30;;;25.60;51.10;;;;;;4949843;28;20203;-46
2021/11/12 10:11:28;;;;;;;0.30;0.30;;;25.60;51.20;;;;;;4949015;28;20234;-46
2021/11/12 10:14:09;;;;;;;0.68;0.30;;;25.50;51.10;;;;;;4948031;28;20313;-45
2021/11/12 10:16:42;;;;;;;0.45;0.30;;;25.50;51.20;;;;;;4950531;28;20293;-49
2021/11/12 10:19:18;;;;;;;0.90;0.30;;;25.50;51.20;;;;;;4938348;29;20291;-47
2021/11/12 10:21:50;;;;;;;0.30;0.22;;;25.50;51.20;;;;;;4944093;29;20296;-46
2021/11/12 10:24:22;;;;;;;0.43;0.40;;;25.50;51.30;;;;;;4949846;28;20314;-44
2021/11/12 10:26:55;;;;;;;0.63;0.22;;;25.50;51.30;;;;;;4949520;29;20211;-48
2021/11/12 10:29:28;;;;;;;0.20;0.20;;;25.40;51.30;;;;;;4948051;28;20234;-47
2021/11/12 10:32:02;;;;;;;2.42;0.30;;;25.40;51.40;;;;;;4949782;28;20290;-47
2021/11/12 10:34:34;;;;;;;1.88;0.30;;;25.40;51.40;;;;;;4947688;29;20734;-47
2021/11/12 10:37:07;;;;;;;0.20;0.20;;;25.40;51.50;;;;;;4947245;28;20204;-46
2021/11/12 10:39:43;;;;;;;1.02;0.30;;;25.30;51.40;;;;;;4948683;28;20748;-44
2021/11/12 10:42:15;;;;;;;0.20;0.20;;;25.30;51.40;;;;;;4948942;29;20253;-47
2021/11/12 10:44:47;;;;;;;0.82;0.30;;;25.30;51.40;;;;;;4950185;28;20313;-44
2021/11/12 10:47:21;;;;;;;0.30;0.30;;;25.30;51.40;;;;;;4953403;29;20686;-44
2021/11/12 10:49:52;;;;;;;1.58;0.40;;;25.30;51.50;;;;;;4951428;29;20290;-45
2021/11/12 10:52:24;;;;;;;0.20;0.20;;;25.30;51.40;;;;;;4951839;28;20299;-45
2021/11/12 10:54:58;;;;;;;1.05;0.30;;;25.20;51.30;;;;;;4952999;28;20227;-48
2021/11/12 10:57:33;;;;;;;0.73;0.30;;;25.20;51.30;;;;;;4950168;29;20199;-45
2021/11/12 11:00:11;;;;;;;0.52;0.40;;;25.20;51.20;;;;;;4952903;28;20238;-48
2021/11/12 11:02:50;;;;;;;1.63;0.40;;;25.10;51.20;;;;;;4952839;29;20270;-47
2021/11/12 11:05:22;;;;;;;0.73;0.40;;;25.20;51.20;;;;;;4951062;29;20313;-47
2021/11/12 11:07:55;;;;;;;0.77;0.40;;;25.10;51.20;;;;;;4951769;28;20290;-44
2021/11/12 11:10:32;;;;;;;0.40;0.30;;;25.10;51.20;;;;;;4953193;28;20312;-46
2021/11/12 11:13:10;;;;;;;0.20;0.20;;;25.10;51.30;;;;;;4949935;29;20638;-44
2021/11/12 11:15:42;;;;;;;0.98;0.38;;;25.10;51.30;;;;;;4951526;28;20230;-44
2021/11/12 11:18:24;;;;;;;1.40;0.47;;;25.00;51.30;;;;;;4952494;29;20278;-44
2021/11/12 11:21:01;;;;;;;0.57;0.35;;;25.00;51.20;;;;;;4949778;29;20934;-44
2021/11/12 11:23:33;;;;;;;1.75;0.30;;;25.00;51.20;;;;;;4951133;28;20273;-45
2021/11/12 11:26:06;;;;;;;0.50;0.30;;;25.00;51.20;;;;;;4952672;28;20658;-44
2021/11/12 11:28:39;;;;;;;0.68;0.40;;;25.00;51.20;;;;;;4950450;28;20311;-45
2021/11/12 11:31:11;;;;;;;0.43;0.40;;;25.00;51.30;;;;;;4951183;28;20289;-45
2021/11/12 11:33:45;;;;;;;0.28;0.28;;;24.90;51.40;;;;;;4951749;28;20257;-44
2021/11/12 11:36:18;;;;;;;0.73;0.30;;;24.90;51.20;;;;;;4951357;28;20282;-45
2021/11/12 11:38:48;;;;;;;0.90;0.32;;;24.90;51.30;;;;;;4951211;28;20206;-44
2021/11/12 11:41:21;;;;;;;0.20;0.20;;;24.90;51.30;;;;;;4937128;29;20630;-44
2021/11/12 11:43:52;;;;;;;1.35;0.40;;;24.80;51.20;;;;;;4951883;28;20233;-43
2021/11/12 11:46:26;;;;;;;0.30;0.30;;;24.80;51.20;;;;;;4951777;29;20322;-43
2021/11/12 11:49:00;;;;;;;0.40;0.40;;;24.80;51.20;;;;;;4952064;29;20240;-45
2021/11/12 11:51:32;;;;;;;0.52;0.30;;;24.80;51.30;;;;;;4952030;29;20645;-46
2021/11/12 11:54:08;;;;;;;0.95;0.40;;;24.80;51.40;;;;;;4951120;28;20624;-45
2021/11/12 11:56:42;;;;;;;0.30;0.30;;;24.70;51.40;;;;;;4950647;28;20293;-47
2021/11/12 11:59:18;;;;;;;0.30;0.30;;;24.70;51.40;;;;;;4950905;28;20673;-45
2021/11/12 12:01:51;;;;;;;1.33;0.20;;;24.70;51.40;;;;;;4948967;29;20202;-44
2021/11/12 12:04:32;;;;;;;0.30;0.30;;;24.70;51.40;;;;;;4950909;28;20302;-44
2021/11/12 12:07:34;;;;;;;0.30;0.30;;;24.70;51.50;;;;;;4940107;28;20604;-47
2021/11/12 12:10:20;;;;;;;0.40;0.30;;;24.60;51.40;;;;;;4945260;28;20237;-45
2021/11/12 12:13:06;;;;;;;0.30;0.30;;;24.60;51.40;;;;;;4950164;28;20293;-48
2021/11/12 12:15:42;;;;;;;0.30;0.30;;;24.60;51.40;;;;;;4949895;29;20724;-44
2021/11/12 12:18:24;;;;;;;0.28;0.28;;;24.60;51.40;;;;;;4950578;28;20205;-44
2021/11/12 12:21:51;;;;;;;0.50;0.30;;;24.60;51.50;;;;;;4950216;28;20207;-46
2021/11/12 12:31:18;;;;;;;0.50;0.20;;;24.50;51.50;;;;;;4949542;29;20230;-46
2021/11/12 13:22:56;;;;;;;0.32;0.20;;;24.10;52.00;;;;;;4947712;29;20581;-44
2021/11/12 13:25:33;;;;;;;0.50;0.40;;;24.00;51.90;;;;;;4949716;28;20226;-48
2021/11/12 13:28:27;;;;;;;0.40;0.30;;;24.00;51.90;;;;;;4949854;28;20289;-44
2021/11/12 13:31:00;;;;;;;0.32;0.30;;;24.00;52.00;;;;;;4922689;28;20563;-44
2021/11/12 13:33:53;;;;;;;0.38;0.38;;;24.00;52.00;;;;;;4946311;29;20229;-45
2021/11/12 13:36:28;;;;;;;1.50;0.40;;;24.00;52.00;;;;;;4945998;28;20220;-44
2021/11/12 13:39:00;;;;;;;0.30;0.30;;;24.00;52.30;;;;;;4938215;28;20798;-45
2021/11/12 13:41:33;;;;;;;0.38;0.30;;;24.00;52.00;;;;;;4935440;28;20699;-46
2021/11/12 13:44:06;;;;;;;0.60;0.40;;;23.90;52.00;;;;;;4935188;29;20231;-46
2021/11/12 13:46:51;;;;;;;0.70;0.40;;;23.90;52.00;;;;;;4942922;29;20223;-46
2021/11/12 13:49:32;;;;;;;0.32;0.32;;;23.90;52.00;;;;;;4950150;28;20686;-47
2021/11/12 13:52:05;;;;;;;0.40;0.30;;;23.90;52.00;;;;;;4949353;28;20206;-48
2021/11/12 13:54:41;;;;;;;0.60;0.40;;;23.80;52.00;;;;;;4949101;28;20306;-45
2021/11/12 13:57:14;;;;;;;0.63;0.43;;;23.80;52.10;;;;;;4941518;29;20301;-45
2021/11/12 13:59:57;;;;;;;0.40;0.40;;;23.80;52.10;;;;;;4949463;28;20576;-44
2021/11/12 14:02:28;;;;;;;1.20;0.30;;;23.80;52.10;;;;;;4949339;28;20674;-43
2021/11/12 14:05:10;;;;;;;0.90;0.40;;;23.80;52.20;;;;;;4947450;28;20301;-44
2021/11/12 14:07:41;;;;;;;0.60;0.40;;;23.70;52.20;;;;;;4938550;29;20290;-43
2021/11/12 14:10:13;;;;;;;0.30;0.30;;;23.70;52.20;;;;;;4948494;28;20238;-44
2021/11/12 14:12:55;;;;;;;0.75;0.38;;;23.70;52.20;;;;;;4947967;28;20203;-45
2021/11/12 14:15:28;;;;;;;0.57;0.50;;;23.70;52.20;;;;;;4946561;29;20287;-43
2021/11/12 14:18:31;;;;;;;0.65;0.50;;;23.70;52.30;;;;;;4949670;28;20203;-45
2021/11/12 14:21:18;;;;;;;1.60;0.47;;;23.70;52.20;;;;;;4953219;28;20195;-43
2021/11/12 14:24:11;;;;;;;1.85;0.52;;;23.60;52.20;;;;;;4953037;28;20310;-45
2021/11/12 14:26:51;;;;;;;1.05;0.50;;;23.60;52.10;;;;;;4951775;28;20262;-44
2021/11/12 14:29:46;;;;;;;0.40;0.40;;;23.60;52.20;;;;;;4952400;28;20206;-44
2021/11/12 14:35:30;;;;;;;0.50;0.40;;;23.60;52.20;;;;;;4892833;29;20599;-45
2021/11/12 14:38:16;;;;;;;1.02;0.50;;;23.60;52.30;;;;;;4935892;28;20211;-44
2021/11/12 14:43:49;;;;;;;0.75;0.40;;;23.50;52.30;;;;;;4942322;28;20697;-44
2021/11/12 14:46:24;;;;;;;0.73;0.45;;;23.50;52.30;;;;;;4942399;28;20230;-46
2021/11/12 14:49:04;;;;;;;0.88;0.60;;;23.40;52.30;;;;;;4948148;29;20198;-45
2021/11/12 14:51:41;;;;;;;0.55;0.40;;;23.40;52.30;;;;;;4952663;28;20270;-45
2021/11/12 14:54:14;;;;;;;1.77;0.60;;;23.40;52.40;;;;;;4944342;28;20325;-44
2021/11/12 14:56:50;;;;;;;1.10;0.47;;;23.40;52.40;;;;;;4946881;28;20226;-45
2021/11/12 14:59:21;;;;;;;0.68;0.50;;;23.40;52.40;;;;;;4951786;29;20234;-44
2021/11/12 15:01:51;;;;;;;1.02;0.60;;;23.30;52.40;;;;;;4951561;28;20285;-44
2021/11/12 15:04:22;;;;;;;0.60;0.60;;;23.30;52.50;;;;;;4941485;29;20301;-45
2021/11/12 15:06:52;;;;;;;0.77;0.50;;;23.30;52.50;;;;;;4951332;28;20322;-45
2021/11/12 15:09:28;;;;;;;0.40;0.40;;;23.30;52.50;;;;;;4952149;28;20304;-44
2021/11/12 15:11:58;;;;;;;0.68;0.43;;;23.30;52.50;;;;;;4951986;28;20199;-44
2021/11/12 15:14:30;;;;;;;1.55;0.40;;;23.30;52.50;;;;;;4937163;29;20233;-45
2021/11/12 15:17:02;;;;;;;0.98;0.50;;;23.30;52.50;;;;;;4935942;29;20562;-45
2021/11/12 15:19:34;;;;;;;1.08;0.50;;;23.30;52.50;;;;;;4951292;29;20199;-46
2021/11/12 15:22:12;;;;;;;0.55;0.47;;;23.20;52.40;;;;;;4951882;28;20210;-45
2021/11/12 15:24:51;;;;;;;0.50;0.40;;;23.20;52.40;;;;;;4951145;29;20266;-46
2021/11/12 15:27:43;;;;;;;1.13;0.60;;;23.20;52.50;;;;;;4951559;28;20414;-45
2021/11/12 15:30:18;;;;;;;1.17;0.73;;;23.20;52.50;;;;;;4950591;28;20203;-46
2021/11/12 15:32:52;;;;;;;0.57;0.57;;;23.20;52.50;;;;;;4951263;29;20732;-44
2021/11/12 15:35:24;;;;;;;0.73;0.60;;;23.20;52.60;;;;;;4951142;28;20202;-47
2021/11/12 15:38:00;;;;;;;2.03;0.60;;;23.10;52.50;;;;;;4939256;28;20728;-44
2021/11/12 15:40:34;;;;;;;0.90;0.60;;;23.10;52.60;;;;;;4948686;28;20202;-47
2021/11/12 15:43:12;;;;;;;2.00;0.85;;;23.10;52.70;;;;;;4951035;28;20297;-45
2021/11/12 15:48:33;;;;;;;1.42;0.50;;;23.00;52.60;;;;;;4944919;28;20681;-48
2021/11/12 15:51:25;;;;;;;1.92;0.73;;;23.00;52.70;;;;;;4941663;28;20199;-47
2021/11/12 15:54:09;;;;;;;1.05;0.60;;;23.00;52.70;;;;;;4937210;29;20231;-44
2021/11/12 15:57:04;;;;;;;1.38;0.60;;;23.00;52.60;;;;;;4947903;28;20673;-44
2021/11/12 15:59:45;;;;;;;2.03;0.70;;;23.00;52.60;;;;;;4950606;28;20230;-46
2021/11/12 16:08:00;;;;;;;1.25;0.63;;;22.90;53.20;;;;;;4950839;28;20328;-45
2021/11/12 16:13:34;;;;;;;1.60;0.80;;;22.90;53.30;;;;;;4950690;29;20233;-49
2021/11/12 16:19:07;;;;;;;3.00;0.80;;;22.90;52.70;;;;;;4951701;29;20206;-44
2021/11/12 16:24:39;;;;;;;1.45;0.70;;;22.80;52.70;;;;;;4935046;29;20230;-47
2021/11/12 16:27:10;;;;;;;1.42;0.98;;;22.90;52.80;;;;;;4950412;28;20231;-47
2021/11/12 16:29:44;;;;;;;1.08;0.70;;;22.80;52.80;;;;;;4951587;29;20202;-47
2021/11/12 16:32:23;;;;;;;0.93;0.85;;;22.80;52.80;;;;;;4950118;29;20650;-47
2021/11/12 16:34:57;;;;;;;0.88;0.70;;;22.80;52.80;;;;;;4949936;29;20225;-45
2021/11/12 16:37:29;;;;;;;1.42;0.80;;;22.80;52.80;;;;;;4950404;28;20663;-46
2021/11/12 16:40:03;;;;;;;2.00;0.70;;;22.70;52.80;;;;;;4950313;28;20202;-44
2021/11/12 16:42:44;;;;;;;1.17;0.65;;;22.70;52.80;;;;;;4938523;28;20298;-46
2021/11/12 16:45:26;;;;;;;0.90;0.70;;;22.70;52.80;;;;;;4936575;29;20211;-46
2021/11/12 16:50:54;;;;;;;1.42;0.70;;;22.70;52.80;;;;;;4950401;28;20213;-45
2021/11/12 16:53:35;;;;;;;1.17;0.70;;;22.70;52.80;;;;;;4950389;28;20222;-45
2021/11/12 16:56:38;;;;;;;1.80;0.80;;;22.70;52.90;;;;;;4941654;28;20211;-44
2021/11/12 16:59:13;;;;;;;0.98;0.60;;;22.60;52.90;;;;;;4950153;28;20206;-47
2021/11/12 17:04:37;;;;;;;1.90;0.73;;;22.60;52.80;;;;;;4950098;29;20594;-44
2021/11/12 17:07:14;;;;;;;0.70;0.70;;;22.60;52.90;;;;;;4937184;28;20222;-44
2021/11/12 17:10:04;;;;;;;1.13;0.63;;;22.60;52.90;;;;;;4947692;29;20226;-44
2021/11/12 17:13:01;;;;;;;1.85;0.93;;;22.60;52.90;;;;;;4949484;28;20227;-45
2021/11/12 17:15:43;;;;;;;1.55;0.90;;;22.50;52.90;;;;;;4949970;29;20203;-44
2021/11/12 17:18:29;;;;;;;2.53;0.98;;;22.50;52.90;;;;;;4949647;29;20572;-47
2021/11/12 17:48:44;;;;;;;1.73;1.00;;;22.40;53.00;;;;;;4949842;28;20245;-44
2021/11/12 18:02:32;;;;;;;1.58;0.88;;;22.30;53.10;;;;;;4941837;29;20260;-46
2021/11/12 18:05:12;;;;;;;1.38;0.90;;;22.30;53.10;;;;;;4954485;28;20221;-46
2021/11/12 18:08:04;;;;;;;1.48;0.80;;;22.30;53.10;;;;;;4953342;28;20502;-45
2021/11/12 18:13:47;;;;;;;1.67;1.00;;;22.30;53.10;;;;;;4947914;28;20362;-44
2021/11/12 18:22:13;;;;;;;2.33;1.05;;;22.30;53.10;;;;;;4912297;29;20207;-44
2021/11/12 21:45:59;;;;;;;2.95;1.90;;;22.10;54.10;;;;;;4933815;29;20199;-46